sensor_id;sensor_type;location;lat;lon;timestamp;P1;durP1;ratioP1;P2;durP2;ratioP2
8895;SDS011;4484;48.928;10.066;2023-05-10T00:00:21;0.53;;;0.53;;
8895;SDS011;4484;48.928;10.066;2023-05-10T00:02:49;0.70;;;0.70;;
8895;SDS011;4484;48.928;10.066;2023-05-10T00:05:16;0.60;;;0.60;;
8895;SDS011;4484;48.928;10.066;2023-05-10T00:07:43;0.90;;;0.70;;
8895;SDS011;4484;48.928;10.066;2023-05-10T00:10:13;1.53;;;0.60;;
8895;SDS011;4484;48.928;10.066;2023-05-10T00:12:40;0.47;;;0.47;;
8895;SDS011;4484;48.928;10.066;2023-05-10T00:15:08;1.03;;;0.60;;
8895;SDS011;4484;48.928;10.066;2023-05-10T00:17:35;2.10;;;0.50;;
8895;SDS011;4484;48.928;10.066;2023-05-10T00:20:02;0.70;;;0.67;;
8895;SDS011;4484;48.928;10.066;2023-05-10T00:22:31;1.13;;;0.50;;
8895;SDS011;4484;48.928;10.066;2023-05-10T00:24:58;0.87;;;0.53;;
8895;SDS011;4484;48.928;10.066;2023-05-10T00:27:25;0.60;;;0.60;;
8895;SDS011;4484;48.928;10.066;2023-05-10T00:29:52;0.60;;;0.60;;
8895;SDS011;4484;48.928;10.066;2023-05-10T00:32:19;0.93;;;0.63;;
8895;SDS011;4484;48.928;10.066;2023-05-10T00:34:46;2.33;;;0.53;;
8895;SDS011;4484;48.928;10.066;2023-05-10T00:37:13;0.60;;;0.60;;
8895;SDS011;4484;48.928;10.066;2023-05-10T00:39:40;0.50;;;0.50;;
8895;SDS011;4484;48.928;10.066;2023-05-10T00:42:07;1.63;;;0.70;;
8895;SDS011;4484;48.928;10.066;2023-05-10T00:44:34;0.60;;;0.50;;
8895;SDS011;4484;48.928;10.066;2023-05-10T00:47:01;0.90;;;0.77;;
8895;SDS011;4484;48.928;10.066;2023-05-10T00:49:28;2.43;;;0.70;;
8895;SDS011;4484;48.928;10.066;2023-05-10T00:51:55;0.73;;;0.60;;
8895;SDS011;4484;48.928;10.066;2023-05-10T00:54:22;0.63;;;0.60;;
8895;SDS011;4484;48.928;10.066;2023-05-10T00:56:50;2.33;;;0.60;;
8895;SDS011;4484;48.928;10.066;2023-05-10T00:59:17;1.63;;;0.30;;
8895;SDS011;4484;48.928;10.066;2023-05-10T01:01:45;1.07;;;0.60;;
8895;SDS011;4484;48.928;10.066;2023-05-10T01:04:12;0.37;;;0.33;;
8895;SDS011;4484;48.928;10.066;2023-05-10T01:06:41;0.37;;;0.37;;
8895;SDS011;4484;48.928;10.066;2023-05-10T01:09:08;3.03;;;0.40;;
8895;SDS011;4484;48.928;10.066;2023-05-10T01:11:36;0.50;;;0.50;;
8895;SDS011;4484;48.928;10.066;2023-05-10T01:14:04;0.30;;;0.30;;
8895;SDS011;4484;48.928;10.066;2023-05-10T01:16:33;0.33;;;0.33;;
8895;SDS011;4484;48.928;10.066;2023-05-10T01:19:21;0.37;;;0.30;;
8895;SDS011;4484;48.928;10.066;2023-05-10T01:21:53;1.53;;;0.50;;
8895;SDS011;4484;48.928;10.066;2023-05-10T01:33:24;1.33;;;0.30;;
8895;SDS011;4484;48.928;10.066;2023-05-10T01:46:49;0.53;;;0.30;;
8895;SDS011;4484;48.928;10.066;2023-05-10T01:49:39;0.93;;;0.37;;
8895;SDS011;4484;48.928;10.066;2023-05-10T01:52:14;0.47;;;0.43;;
8895;SDS011;4484;48.928;10.066;2023-05-10T01:54:49;0.37;;;0.37;;
8895;SDS011;4484;48.928;10.066;2023-05-10T01:57:20;0.20;;;0.20;;
8895;SDS011;4484;48.928;10.066;2023-05-10T01:59:55;0.90;;;0.30;;
8895;SDS011;4484;48.928;10.066;2023-05-10T02:02:23;0.20;;;0.20;;
8895;SDS011;4484;48.928;10.066;2023-05-10T02:04:52;0.50;;;0.40;;
8895;SDS011;4484;48.928;10.066;2023-05-10T02:07:21;0.20;;;0.20;;
8895;SDS011;4484;48.928;10.066;2023-05-10T02:09:50;0.30;;;0.30;;
8895;SDS011;4484;48.928;10.066;2023-05-10T02:12:17;0.33;;;0.30;;
8895;SDS011;4484;48.928;10.066;2023-05-10T02:14:45;2.17;;;0.40;;
8895;SDS011;4484;48.928;10.066;2023-05-10T02:17:13;0.30;;;0.30;;
8895;SDS011;4484;48.928;10.066;2023-05-10T02:19:41;0.30;;;0.30;;
8895;SDS011;4484;48.928;10.066;2023-05-10T02:22:09;3.53;;;0.27;;
8895;SDS011;4484;48.928;10.066;2023-05-10T02:24:37;0.60;;;0.30;;
8895;SDS011;4484;48.928;10.066;2023-05-10T02:27:06;0.40;;;0.40;;
8895;SDS011;4484;48.928;10.066;2023-05-10T02:29:34;0.20;;;0.20;;
8895;SDS011;4484;48.928;10.066;2023-05-10T02:32:02;1.07;;;0.30;;
8895;SDS011;4484;48.928;10.066;2023-05-10T02:34:30;2.10;;;0.30;;
8895;SDS011;4484;48.928;10.066;2023-05-10T02:36:58;0.20;;;0.20;;
8895;SDS011;4484;48.928;10.066;2023-05-10T02:39:26;2.07;;;0.60;;
8895;SDS011;4484;48.928;10.066;2023-05-10T02:41:55;0.30;;;0.30;;
8895;SDS011;4484;48.928;10.066;2023-05-10T02:44:23;0.30;;;0.30;;
8895;SDS011;4484;48.928;10.066;2023-05-10T02:46:54;1.03;;;0.23;;
8895;SDS011;4484;48.928;10.066;2023-05-10T02:49:22;0.30;;;0.30;;
8895;SDS011;4484;48.928;10.066;2023-05-10T02:51:51;1.20;;;0.50;;
8895;SDS011;4484;48.928;10.066;2023-05-10T02:54:27;0.67;;;0.67;;
8895;SDS011;4484;48.928;10.066;2023-05-10T02:56:58;0.50;;;0.50;;
8895;SDS011;4484;48.928;10.066;2023-05-10T02:59:27;1.20;;;0.60;;
8895;SDS011;4484;48.928;10.066;2023-05-10T03:01:54;0.40;;;0.40;;
8895;SDS011;4484;48.928;10.066;2023-05-10T03:04:21;1.13;;;0.90;;
8895;SDS011;4484;48.928;10.066;2023-05-10T03:06:49;0.60;;;0.60;;
8895;SDS011;4484;48.928;10.066;2023-05-10T03:09:17;0.93;;;0.70;;
8895;SDS011;4484;48.928;10.066;2023-05-10T03:17:18;0.70;;;0.70;;
8895;SDS011;4484;48.928;10.066;2023-05-10T03:20:06;0.90;;;0.90;;
8895;SDS011;4484;48.928;10.066;2023-05-10T03:22:40;1.70;;;1.23;;
8895;SDS011;4484;48.928;10.066;2023-05-10T03:25:11;1.53;;;1.30;;
8895;SDS011;4484;48.928;10.066;2023-05-10T03:27:40;1.50;;;1.13;;
8895;SDS011;4484;48.928;10.066;2023-05-10T03:30:10;1.33;;;1.23;;
8895;SDS011;4484;48.928;10.066;2023-05-10T03:32:38;1.30;;;1.20;;
8895;SDS011;4484;48.928;10.066;2023-05-10T03:35:07;1.10;;;1.00;;
8895;SDS011;4484;48.928;10.066;2023-05-10T03:37:35;1.17;;;0.97;;
8895;SDS011;4484;48.928;10.066;2023-05-10T03:40:02;1.80;;;1.20;;
8895;SDS011;4484;48.928;10.066;2023-05-10T03:42:32;1.23;;;1.13;;
8895;SDS011;4484;48.928;10.066;2023-05-10T03:44:59;1.40;;;1.30;;
8895;SDS011;4484;48.928;10.066;2023-05-10T03:47:26;1.83;;;1.37;;
8895;SDS011;4484;48.928;10.066;2023-05-10T03:49:53;1.53;;;1.43;;
8895;SDS011;4484;48.928;10.066;2023-05-10T03:52:20;1.20;;;1.10;;
8895;SDS011;4484;48.928;10.066;2023-05-10T03:54:47;1.63;;;1.53;;
8895;SDS011;4484;48.928;10.066;2023-05-10T03:57:14;1.63;;;1.33;;
8895;SDS011;4484;48.928;10.066;2023-05-10T03:59:40;1.80;;;1.40;;
8895;SDS011;4484;48.928;10.066;2023-05-10T04:02:07;3.47;;;1.40;;
8895;SDS011;4484;48.928;10.066;2023-05-10T04:04:35;2.03;;;1.63;;
8895;SDS011;4484;48.928;10.066;2023-05-10T04:07:02;2.27;;;1.97;;
8895;SDS011;4484;48.928;10.066;2023-05-10T04:09:29;2.20;;;1.70;;
8895;SDS011;4484;48.928;10.066;2023-05-10T04:11:56;2.03;;;1.43;;
8895;SDS011;4484;48.928;10.066;2023-05-10T04:14:24;2.30;;;1.70;;
8895;SDS011;4484;48.928;10.066;2023-05-10T04:16:51;3.70;;;1.50;;
8895;SDS011;4484;48.928;10.066;2023-05-10T04:19:18;1.80;;;1.67;;
8895;SDS011;4484;48.928;10.066;2023-05-10T04:21:45;1.90;;;1.73;;
8895;SDS011;4484;48.928;10.066;2023-05-10T04:24:12;2.10;;;1.97;;
8895;SDS011;4484;48.928;10.066;2023-05-10T04:26:38;2.30;;;1.70;;
8895;SDS011;4484;48.928;10.066;2023-05-10T04:29:05;1.73;;;1.63;;
8895;SDS011;4484;48.928;10.066;2023-05-10T04:31:32;2.10;;;1.50;;
8895;SDS011;4484;48.928;10.066;2023-05-10T04:34:00;2.07;;;1.73;;
8895;SDS011;4484;48.928;10.066;2023-05-10T04:36:27;1.50;;;1.40;;
8895;SDS011;4484;48.928;10.066;2023-05-10T04:38:54;1.83;;;1.73;;
8895;SDS011;4484;48.928;10.066;2023-05-10T04:41:21;2.10;;;1.70;;
8895;SDS011;4484;48.928;10.066;2023-05-10T04:43:47;1.97;;;1.87;;
8895;SDS011;4484;48.928;10.066;2023-05-10T04:46:15;2.70;;;2.33;;
8895;SDS011;4484;48.928;10.066;2023-05-10T04:48:42;3.17;;;2.00;;
8895;SDS011;4484;48.928;10.066;2023-05-10T04:51:09;2.57;;;2.30;;
8895;SDS011;4484;48.928;10.066;2023-05-10T04:53:36;2.30;;;2.10;;
8895;SDS011;4484;48.928;10.066;2023-05-10T04:56:03;3.10;;;2.10;;
8895;SDS011;4484;48.928;10.066;2023-05-10T04:58:30;3.57;;;1.87;;
8895;SDS011;4484;48.928;10.066;2023-05-10T05:00:57;2.20;;;2.00;;
8895;SDS011;4484;48.928;10.066;2023-05-10T05:03:30;2.23;;;2.03;;
8895;SDS011;4484;48.928;10.066;2023-05-10T05:05:58;2.53;;;2.33;;
8895;SDS011;4484;48.928;10.066;2023-05-10T05:08:24;2.20;;;2.00;;
8895;SDS011;4484;48.928;10.066;2023-05-10T05:10:52;2.00;;;1.90;;
8895;SDS011;4484;48.928;10.066;2023-05-10T05:13:19;2.77;;;2.37;;
8895;SDS011;4484;48.928;10.066;2023-05-10T05:15:46;2.00;;;1.80;;
8895;SDS011;4484;48.928;10.066;2023-05-10T05:18:12;2.47;;;2.27;;
8895;SDS011;4484;48.928;10.066;2023-05-10T05:20:39;2.53;;;2.33;;
8895;SDS011;4484;48.928;10.066;2023-05-10T05:23:07;2.70;;;2.40;;
8895;SDS011;4484;48.928;10.066;2023-05-10T05:25:33;2.83;;;2.60;;
8895;SDS011;4484;48.928;10.066;2023-05-10T05:28:00;3.50;;;2.67;;
8895;SDS011;4484;48.928;10.066;2023-05-10T05:30:27;3.67;;;2.10;;
8895;SDS011;4484;48.928;10.066;2023-05-10T05:32:54;2.40;;;2.20;;
8895;SDS011;4484;48.928;10.066;2023-05-10T05:35:21;2.40;;;2.20;;
8895;SDS011;4484;48.928;10.066;2023-05-10T05:37:48;2.77;;;2.50;;
8895;SDS011;4484;48.928;10.066;2023-05-10T05:40:15;2.40;;;2.17;;
8895;SDS011;4484;48.928;10.066;2023-05-10T05:42:42;2.03;;;1.93;;
8895;SDS011;4484;48.928;10.066;2023-05-10T05:45:09;2.83;;;2.03;;
8895;SDS011;4484;48.928;10.066;2023-05-10T05:47:39;2.47;;;2.00;;
8895;SDS011;4484;48.928;10.066;2023-05-10T05:50:07;3.53;;;2.07;;
8895;SDS011;4484;48.928;10.066;2023-05-10T05:52:34;3.60;;;2.23;;
8895;SDS011;4484;48.928;10.066;2023-05-10T05:55:01;1.47;;;1.37;;
8895;SDS011;4484;48.928;10.066;2023-05-10T05:57:28;2.40;;;1.30;;
8895;SDS011;4484;48.928;10.066;2023-05-10T05:59:54;1.57;;;1.47;;
8895;SDS011;4484;48.928;10.066;2023-05-10T06:02:21;2.33;;;1.23;;
8895;SDS011;4484;48.928;10.066;2023-05-10T06:04:48;1.40;;;1.30;;
8895;SDS011;4484;48.928;10.066;2023-05-10T06:07:15;2.50;;;1.60;;
8895;SDS011;4484;48.928;10.066;2023-05-10T06:09:42;5.17;;;1.60;;
8895;SDS011;4484;48.928;10.066;2023-05-10T06:12:08;1.50;;;1.40;;
8895;SDS011;4484;48.928;10.066;2023-05-10T06:14:36;3.30;;;1.47;;
8895;SDS011;4484;48.928;10.066;2023-05-10T06:17:02;4.30;;;1.90;;
8895;SDS011;4484;48.928;10.066;2023-05-10T06:19:31;2.60;;;1.70;;
8895;SDS011;4484;48.928;10.066;2023-05-10T06:21:58;4.30;;;1.87;;
8895;SDS011;4484;48.928;10.066;2023-05-10T06:24:24;2.53;;;1.90;;
8895;SDS011;4484;48.928;10.066;2023-05-10T06:26:53;2.20;;;2.00;;
8895;SDS011;4484;48.928;10.066;2023-05-10T06:29:20;3.47;;;2.60;;
8895;SDS011;4484;48.928;10.066;2023-05-10T06:31:46;1.77;;;1.67;;
8895;SDS011;4484;48.928;10.066;2023-05-10T06:34:14;2.60;;;2.40;;
8895;SDS011;4484;48.928;10.066;2023-05-10T06:36:41;3.07;;;2.03;;
8895;SDS011;4484;48.928;10.066;2023-05-10T06:39:08;3.40;;;1.90;;
8895;SDS011;4484;48.928;10.066;2023-05-10T06:41:37;3.07;;;2.23;;
8895;SDS011;4484;48.928;10.066;2023-05-10T06:44:04;2.77;;;2.10;;
8895;SDS011;4484;48.928;10.066;2023-05-10T06:46:31;2.13;;;1.67;;
8895;SDS011;4484;48.928;10.066;2023-05-10T06:48:58;3.87;;;2.37;;
8895;SDS011;4484;48.928;10.066;2023-05-10T06:51:25;6.00;;;3.77;;
8895;SDS011;4484;48.928;10.066;2023-05-10T06:53:52;3.30;;;2.40;;
8895;SDS011;4484;48.928;10.066;2023-05-10T06:56:19;3.77;;;2.80;;
8895;SDS011;4484;48.928;10.066;2023-05-10T06:58:47;6.93;;;4.03;;
8895;SDS011;4484;48.928;10.066;2023-05-10T07:01:14;5.63;;;3.60;;
8895;SDS011;4484;48.928;10.066;2023-05-10T07:03:42;5.17;;;3.80;;
8895;SDS011;4484;48.928;10.066;2023-05-10T07:06:09;6.50;;;3.77;;
8895;SDS011;4484;48.928;10.066;2023-05-10T07:08:56;5.70;;;3.23;;
8895;SDS011;4484;48.928;10.066;2023-05-10T07:11:23;10.37;;;5.97;;
8895;SDS011;4484;48.928;10.066;2023-05-10T07:13:50;5.60;;;3.33;;
8895;SDS011;4484;48.928;10.066;2023-05-10T07:16:16;5.73;;;2.57;;
8895;SDS011;4484;48.928;10.066;2023-05-10T07:18:43;4.77;;;3.43;;
8895;SDS011;4484;48.928;10.066;2023-05-10T07:21:10;2.77;;;2.20;;
8895;SDS011;4484;48.928;10.066;2023-05-10T07:23:37;4.13;;;2.10;;
8895;SDS011;4484;48.928;10.066;2023-05-10T07:26:04;2.97;;;2.17;;
8895;SDS011;4484;48.928;10.066;2023-05-10T07:28:31;6.97;;;2.97;;
8895;SDS011;4484;48.928;10.066;2023-05-10T07:30:58;7.00;;;2.57;;
8895;SDS011;4484;48.928;10.066;2023-05-10T07:33:24;3.67;;;2.30;;
8895;SDS011;4484;48.928;10.066;2023-05-10T07:35:51;1.83;;;1.60;;
8895;SDS011;4484;48.928;10.066;2023-05-10T07:38:18;2.77;;;1.87;;
8895;SDS011;4484;48.928;10.066;2023-05-10T07:40:45;4.67;;;1.90;;
8895;SDS011;4484;48.928;10.066;2023-05-10T07:43:12;2.27;;;1.30;;
8895;SDS011;4484;48.928;10.066;2023-05-10T07:45:38;2.83;;;1.60;;
8895;SDS011;4484;48.928;10.066;2023-05-10T07:48:05;4.43;;;2.00;;
8895;SDS011;4484;48.928;10.066;2023-05-10T07:50:32;10.60;;;4.50;;
8895;SDS011;4484;48.928;10.066;2023-05-10T07:53:00;5.27;;;2.33;;
8895;SDS011;4484;48.928;10.066;2023-05-10T07:55:26;4.70;;;2.47;;
8895;SDS011;4484;48.928;10.066;2023-05-10T07:57:53;2.37;;;1.47;;
8895;SDS011;4484;48.928;10.066;2023-05-10T08:00:20;3.07;;;1.10;;
8895;SDS011;4484;48.928;10.066;2023-05-10T08:02:47;3.53;;;1.33;;
8895;SDS011;4484;48.928;10.066;2023-05-10T08:05:14;2.77;;;1.23;;
8895;SDS011;4484;48.928;10.066;2023-05-10T08:07:42;2.57;;;1.17;;
8895;SDS011;4484;48.928;10.066;2023-05-10T08:10:09;2.00;;;1.00;;
8895;SDS011;4484;48.928;10.066;2023-05-10T08:12:37;2.53;;;1.70;;
8895;SDS011;4484;48.928;10.066;2023-05-10T08:15:04;2.23;;;1.50;;
8895;SDS011;4484;48.928;10.066;2023-05-10T08:17:32;2.27;;;1.20;;
8895;SDS011;4484;48.928;10.066;2023-05-10T08:19:59;1.07;;;0.90;;
8895;SDS011;4484;48.928;10.066;2023-05-10T08:22:26;2.33;;;1.17;;
8895;SDS011;4484;48.928;10.066;2023-05-10T08:24:53;2.20;;;1.30;;
8895;SDS011;4484;48.928;10.066;2023-05-10T08:27:20;2.13;;;1.23;;
8895;SDS011;4484;48.928;10.066;2023-05-10T08:29:47;2.17;;;1.30;;
8895;SDS011;4484;48.928;10.066;2023-05-10T08:32:16;4.27;;;1.30;;
8895;SDS011;4484;48.928;10.066;2023-05-10T08:34:43;1.93;;;1.80;;
8895;SDS011;4484;48.928;10.066;2023-05-10T08:37:10;1.63;;;1.30;;
8895;SDS011;4484;48.928;10.066;2023-05-10T08:39:39;1.67;;;0.87;;
8895;SDS011;4484;48.928;10.066;2023-05-10T08:42:06;2.50;;;0.93;;
8895;SDS011;4484;48.928;10.066;2023-05-10T08:44:35;7.83;;;1.20;;
8895;SDS011;4484;48.928;10.066;2023-05-10T08:47:06;1.27;;;0.90;;
8895;SDS011;4484;48.928;10.066;2023-05-10T08:49:34;0.70;;;0.70;;
8895;SDS011;4484;48.928;10.066;2023-05-10T08:52:03;1.20;;;0.90;;
8895;SDS011;4484;48.928;10.066;2023-05-10T08:54:32;2.90;;;1.17;;
8895;SDS011;4484;48.928;10.066;2023-05-10T08:56:59;2.43;;;1.10;;
8895;SDS011;4484;48.928;10.066;2023-05-10T08:59:27;1.87;;;1.40;;
8895;SDS011;4484;48.928;10.066;2023-05-10T09:01:55;1.53;;;1.20;;
8895;SDS011;4484;48.928;10.066;2023-05-10T09:04:25;1.40;;;1.10;;
8895;SDS011;4484;48.928;10.066;2023-05-10T09:06:52;2.23;;;1.50;;
8895;SDS011;4484;48.928;10.066;2023-05-10T09:09:20;1.90;;;1.40;;
8895;SDS011;4484;48.928;10.066;2023-05-10T09:11:47;1.53;;;1.00;;
8895;SDS011;4484;48.928;10.066;2023-05-10T09:14:14;1.70;;;1.30;;
8895;SDS011;4484;48.928;10.066;2023-05-10T09:16:42;1.33;;;1.10;;
8895;SDS011;4484;48.928;10.066;2023-05-10T09:19:09;3.07;;;0.93;;
8895;SDS011;4484;48.928;10.066;2023-05-10T09:21:37;0.80;;;0.63;;
8895;SDS011;4484;48.928;10.066;2023-05-10T09:24:07;1.07;;;0.90;;
8895;SDS011;4484;48.928;10.066;2023-05-10T09:26:35;4.53;;;0.87;;
8895;SDS011;4484;48.928;10.066;2023-05-10T09:29:11;2.27;;;1.03;;
8895;SDS011;4484;48.928;10.066;2023-05-10T09:31:44;3.77;;;0.70;;
8895;SDS011;4484;48.928;10.066;2023-05-10T09:34:16;2.33;;;1.03;;
8895;SDS011;4484;48.928;10.066;2023-05-10T09:36:59;0.87;;;0.80;;
8895;SDS011;4484;48.928;10.066;2023-05-10T09:39:34;3.83;;;0.90;;
8895;SDS011;4484;48.928;10.066;2023-05-10T09:42:06;2.77;;;0.87;;
8895;SDS011;4484;48.928;10.066;2023-05-10T09:44:36;1.60;;;1.10;;
8895;SDS011;4484;48.928;10.066;2023-05-10T09:47:04;1.37;;;0.90;;
8895;SDS011;4484;48.928;10.066;2023-05-10T09:49:32;1.80;;;1.00;;
8895;SDS011;4484;48.928;10.066;2023-05-10T09:52:00;0.93;;;0.87;;
8895;SDS011;4484;48.928;10.066;2023-05-10T09:54:27;1.27;;;0.70;;
8895;SDS011;4484;48.928;10.066;2023-05-10T09:56:54;0.60;;;0.50;;
8895;SDS011;4484;48.928;10.066;2023-05-10T09:59:21;2.60;;;0.40;;
8895;SDS011;4484;48.928;10.066;2023-05-10T10:01:50;0.80;;;0.40;;
8895;SDS011;4484;48.928;10.066;2023-05-10T10:04:19;2.20;;;0.50;;
8895;SDS011;4484;48.928;10.066;2023-05-10T10:06:47;0.50;;;0.50;;
8895;SDS011;4484;48.928;10.066;2023-05-10T10:09:34;0.87;;;0.60;;
8895;SDS011;4484;48.928;10.066;2023-05-10T10:12:01;1.07;;;0.70;;
8895;SDS011;4484;48.928;10.066;2023-05-10T10:14:29;0.80;;;0.80;;
8895;SDS011;4484;48.928;10.066;2023-05-10T10:16:56;5.30;;;0.67;;
8895;SDS011;4484;48.928;10.066;2023-05-10T10:19:34;2.17;;;0.77;;
8895;SDS011;4484;48.928;10.066;2023-05-10T10:22:02;0.83;;;0.60;;
8895;SDS011;4484;48.928;10.066;2023-05-10T10:24:29;2.23;;;0.60;;
8895;SDS011;4484;48.928;10.066;2023-05-10T10:26:57;0.97;;;0.50;;
8895;SDS011;4484;48.928;10.066;2023-05-10T10:29:58;1.20;;;0.90;;
8895;SDS011;4484;48.928;10.066;2023-05-10T10:35:04;0.97;;;0.67;;
8895;SDS011;4484;48.928;10.066;2023-05-10T10:37:42;0.80;;;0.80;;
8895;SDS011;4484;48.928;10.066;2023-05-10T10:40:22;0.70;;;0.70;;
8895;SDS011;4484;48.928;10.066;2023-05-10T10:42:51;1.20;;;0.90;;
8895;SDS011;4484;48.928;10.066;2023-05-10T10:45:20;2.93;;;0.70;;
8895;SDS011;4484;48.928;10.066;2023-05-10T10:47:47;0.80;;;0.50;;
8895;SDS011;4484;48.928;10.066;2023-05-10T10:50:14;3.23;;;0.50;;
8895;SDS011;4484;48.928;10.066;2023-05-10T10:52:42;0.80;;;0.50;;
8895;SDS011;4484;48.928;10.066;2023-05-10T11:03:05;0.53;;;0.40;;
8895;SDS011;4484;48.928;10.066;2023-05-10T11:05:41;1.30;;;0.80;;
8895;SDS011;4484;48.928;10.066;2023-05-10T11:08:10;1.37;;;0.90;;
8895;SDS011;4484;48.928;10.066;2023-05-10T11:10:39;1.03;;;0.60;;
8895;SDS011;4484;48.928;10.066;2023-05-10T11:13:09;1.47;;;0.93;;
8895;SDS011;4484;48.928;10.066;2023-05-10T11:15:40;0.83;;;0.67;;
8895;SDS011;4484;48.928;10.066;2023-05-10T11:20:51;1.57;;;0.80;;
8895;SDS011;4484;48.928;10.066;2023-05-10T11:23:21;0.80;;;0.60;;
8895;SDS011;4484;48.928;10.066;2023-05-10T11:25:48;1.03;;;0.50;;
8895;SDS011;4484;48.928;10.066;2023-05-10T11:28:17;2.17;;;0.90;;
8895;SDS011;4484;48.928;10.066;2023-05-10T11:30:45;0.93;;;0.80;;
8895;SDS011;4484;48.928;10.066;2023-05-10T11:33:16;1.17;;;1.07;;
8895;SDS011;4484;48.928;10.066;2023-05-10T11:35:44;1.27;;;0.73;;
8895;SDS011;4484;48.928;10.066;2023-05-10T11:38:12;3.97;;;0.87;;
8895;SDS011;4484;48.928;10.066;2023-05-10T11:40:39;2.90;;;2.17;;
8895;SDS011;4484;48.928;10.066;2023-05-10T11:43:08;1.20;;;1.10;;
8895;SDS011;4484;48.928;10.066;2023-05-10T11:45:36;1.83;;;1.00;;
8895;SDS011;4484;48.928;10.066;2023-05-10T11:48:03;1.77;;;1.37;;
8895;SDS011;4484;48.928;10.066;2023-05-10T11:50:31;4.73;;;1.20;;
8895;SDS011;4484;48.928;10.066;2023-05-10T11:52:58;1.73;;;1.27;;
8895;SDS011;4484;48.928;10.066;2023-05-10T11:55:25;1.87;;;0.90;;
8895;SDS011;4484;48.928;10.066;2023-05-10T11:57:55;2.20;;;1.13;;
8895;SDS011;4484;48.928;10.066;2023-05-10T12:00:27;2.50;;;1.10;;
8895;SDS011;4484;48.928;10.066;2023-05-10T12:02:54;3.30;;;1.33;;
8895;SDS011;4484;48.928;10.066;2023-05-10T12:05:21;1.20;;;1.00;;
8895;SDS011;4484;48.928;10.066;2023-05-10T12:07:48;2.73;;;1.67;;
8895;SDS011;4484;48.928;10.066;2023-05-10T12:10:15;2.40;;;1.07;;
8895;SDS011;4484;48.928;10.066;2023-05-10T12:12:46;1.67;;;1.30;;
8895;SDS011;4484;48.928;10.066;2023-05-10T12:15:21;3.27;;;2.00;;
8895;SDS011;4484;48.928;10.066;2023-05-10T12:17:49;1.63;;;1.10;;
8895;SDS011;4484;48.928;10.066;2023-05-10T12:22:55;1.00;;;0.83;;
8895;SDS011;4484;48.928;10.066;2023-05-10T12:25:29;1.60;;;0.40;;
8895;SDS011;4484;48.928;10.066;2023-05-10T12:27:57;0.40;;;0.40;;
8895;SDS011;4484;48.928;10.066;2023-05-10T12:30:27;1.40;;;0.37;;
8895;SDS011;4484;48.928;10.066;2023-05-10T12:33:11;0.20;;;0.20;;
8895;SDS011;4484;48.928;10.066;2023-05-10T12:35:48;0.47;;;0.20;;
8895;SDS011;4484;48.928;10.066;2023-05-10T12:41:17;0.53;;;0.40;;
8895;SDS011;4484;48.928;10.066;2023-05-10T12:43:44;0.80;;;0.23;;
8895;SDS011;4484;48.928;10.066;2023-05-10T12:46:16;1.90;;;0.50;;
8895;SDS011;4484;48.928;10.066;2023-05-10T12:48:44;1.13;;;0.70;;
8895;SDS011;4484;48.928;10.066;2023-05-10T12:51:34;1.10;;;0.80;;
8895;SDS011;4484;48.928;10.066;2023-05-10T12:54:01;3.33;;;0.80;;
8895;SDS011;4484;48.928;10.066;2023-05-10T12:56:28;2.53;;;1.00;;
8895;SDS011;4484;48.928;10.066;2023-05-10T12:58:55;1.13;;;0.70;;
8895;SDS011;4484;48.928;10.066;2023-05-10T13:01:22;2.27;;;0.80;;
8895;SDS011;4484;48.928;10.066;2023-05-10T13:03:49;2.20;;;0.60;;
8895;SDS011;4484;48.928;10.066;2023-05-10T13:06:16;1.67;;;0.70;;
8895;SDS011;4484;48.928;10.066;2023-05-10T13:08:43;0.63;;;0.50;;
8895;SDS011;4484;48.928;10.066;2023-05-10T13:11:10;1.90;;;0.50;;
8895;SDS011;4484;48.928;10.066;2023-05-10T13:13:37;1.47;;;0.57;;
8895;SDS011;4484;48.928;10.066;2023-05-10T13:16:04;0.73;;;0.60;;
8895;SDS011;4484;48.928;10.066;2023-05-10T13:18:31;2.07;;;0.70;;
8895;SDS011;4484;48.928;10.066;2023-05-10T13:20:58;2.67;;;0.70;;
8895;SDS011;4484;48.928;10.066;2023-05-10T13:23:24;0.80;;;0.70;;
8895;SDS011;4484;48.928;10.066;2023-05-10T13:25:51;0.50;;;0.43;;
8895;SDS011;4484;48.928;10.066;2023-05-10T13:28:18;0.70;;;0.50;;
8895;SDS011;4484;48.928;10.066;2023-05-10T13:30:45;0.87;;;0.47;;
8895;SDS011;4484;48.928;10.066;2023-05-10T13:33:12;1.13;;;0.53;;
8895;SDS011;4484;48.928;10.066;2023-05-10T13:35:39;1.50;;;0.70;;
8895;SDS011;4484;48.928;10.066;2023-05-10T13:38:05;1.60;;;0.50;;
8895;SDS011;4484;48.928;10.066;2023-05-10T13:40:34;1.33;;;0.70;;
8895;SDS011;4484;48.928;10.066;2023-05-10T13:43:02;0.80;;;0.50;;
8895;SDS011;4484;48.928;10.066;2023-05-10T13:45:29;2.73;;;0.83;;
8895;SDS011;4484;48.928;10.066;2023-05-10T13:47:55;2.63;;;0.60;;
8895;SDS011;4484;48.928;10.066;2023-05-10T13:50:22;0.43;;;0.43;;
8895;SDS011;4484;48.928;10.066;2023-05-10T13:52:49;0.63;;;0.40;;
8895;SDS011;4484;48.928;10.066;2023-05-10T13:55:16;0.73;;;0.60;;
8895;SDS011;4484;48.928;10.066;2023-05-10T13:57:43;1.70;;;0.83;;
8895;SDS011;4484;48.928;10.066;2023-05-10T14:00:10;1.87;;;0.70;;
8895;SDS011;4484;48.928;10.066;2023-05-10T14:02:37;2.27;;;0.73;;
8895;SDS011;4484;48.928;10.066;2023-05-10T14:05:04;2.87;;;1.00;;
8895;SDS011;4484;48.928;10.066;2023-05-10T14:07:31;1.20;;;0.50;;
8895;SDS011;4484;48.928;10.066;2023-05-10T14:09:58;2.70;;;0.60;;
8895;SDS011;4484;48.928;10.066;2023-05-10T14:12:25;1.13;;;0.53;;
8895;SDS011;4484;48.928;10.066;2023-05-10T14:14:52;1.20;;;0.70;;
8895;SDS011;4484;48.928;10.066;2023-05-10T14:17:18;1.00;;;0.70;;
8895;SDS011;4484;48.928;10.066;2023-05-10T14:19:45;1.80;;;0.73;;
8895;SDS011;4484;48.928;10.066;2023-05-10T14:22:12;1.60;;;0.60;;
8895;SDS011;4484;48.928;10.066;2023-05-10T14:24:39;2.10;;;0.70;;
8895;SDS011;4484;48.928;10.066;2023-05-10T14:27:06;1.30;;;0.70;;
8895;SDS011;4484;48.928;10.066;2023-05-10T14:29:33;0.93;;;0.60;;
8895;SDS011;4484;48.928;10.066;2023-05-10T14:31:59;2.20;;;0.80;;
8895;SDS011;4484;48.928;10.066;2023-05-10T14:34:26;1.70;;;0.70;;
8895;SDS011;4484;48.928;10.066;2023-05-10T14:36:53;0.70;;;0.60;;
8895;SDS011;4484;48.928;10.066;2023-05-10T14:39:20;2.37;;;0.73;;
8895;SDS011;4484;48.928;10.066;2023-05-10T14:41:47;1.80;;;0.90;;
8895;SDS011;4484;48.928;10.066;2023-05-10T14:44:14;1.00;;;0.67;;
8895;SDS011;4484;48.928;10.066;2023-05-10T14:46:41;1.67;;;0.70;;
8895;SDS011;4484;48.928;10.066;2023-05-10T14:49:08;1.87;;;0.80;;
8895;SDS011;4484;48.928;10.066;2023-05-10T14:51:35;3.60;;;1.33;;
8895;SDS011;4484;48.928;10.066;2023-05-10T14:54:03;2.23;;;1.40;;
8895;SDS011;4484;48.928;10.066;2023-05-10T14:56:29;1.63;;;1.33;;
8895;SDS011;4484;48.928;10.066;2023-05-10T14:58:56;3.10;;;1.40;;
8895;SDS011;4484;48.928;10.066;2023-05-10T15:01:24;4.17;;;0.90;;
8895;SDS011;4484;48.928;10.066;2023-05-10T15:03:51;2.43;;;1.20;;
8895;SDS011;4484;48.928;10.066;2023-05-10T15:06:22;5.07;;;1.40;;
8895;SDS011;4484;48.928;10.066;2023-05-10T15:08:56;2.00;;;1.33;;
8895;SDS011;4484;48.928;10.066;2023-05-10T15:11:23;2.63;;;1.40;;
8895;SDS011;4484;48.928;10.066;2023-05-10T15:13:50;3.67;;;1.90;;
8895;SDS011;4484;48.928;10.066;2023-05-10T15:16:17;4.73;;;2.17;;
8895;SDS011;4484;48.928;10.066;2023-05-10T15:18:43;1.97;;;1.00;;
8895;SDS011;4484;48.928;10.066;2023-05-10T15:21:11;4.03;;;1.80;;
8895;SDS011;4484;48.928;10.066;2023-05-10T15:23:38;4.30;;;2.37;;
8895;SDS011;4484;48.928;10.066;2023-05-10T15:26:05;5.80;;;2.43;;
8895;SDS011;4484;48.928;10.066;2023-05-10T15:28:32;7.23;;;3.23;;
8895;SDS011;4484;48.928;10.066;2023-05-10T15:30:59;5.47;;;3.00;;
8895;SDS011;4484;48.928;10.066;2023-05-10T15:33:26;17.03;;;7.83;;
8895;SDS011;4484;48.928;10.066;2023-05-10T15:35:53;7.53;;;3.30;;
8895;SDS011;4484;48.928;10.066;2023-05-10T15:38:20;3.00;;;1.80;;
8895;SDS011;4484;48.928;10.066;2023-05-10T15:40:47;3.07;;;0.80;;
8895;SDS011;4484;48.928;10.066;2023-05-10T15:43:14;5.20;;;0.90;;
8895;SDS011;4484;48.928;10.066;2023-05-10T15:45:41;2.20;;;0.83;;
8895;SDS011;4484;48.928;10.066;2023-05-10T15:48:08;4.70;;;0.80;;
8895;SDS011;4484;48.928;10.066;2023-05-10T15:50:35;1.27;;;0.70;;